Tiempo atmosférico en la estación meteorológica de Zaorejas, Guadalajara (1230 m.)



Fecha
DESCASC
Temp. máxima en grados centígrados (hora)
DESCASC
Temp. mínima en grados centígrados (hora)
DESCASC
Temp. media en grados centígrados
DESCASC
Racha de viento máxima en m/sg (hora)
DESCASC
Velocidad máxima media en intervalos de 10 minutos(hora)
DESCASC
Precipitaciones diarias en mm
DESCASC
Precipitaciones de 00:00 a 06:00 en mm
DESCASC
Precipitaciones de 06:00 a 12:00 en mm
DESCASC
Precipitaciones de 12:00 a 18:00 en mm
DESCASC
Precipitaciones de 18:00 a 24:00 en mm
DESCASC
17-09-2020 23.1 (15:00) 15.7 (23:59) 19.4 12.22 (23:00) 6.11 (16:30) 1.2 0 0 0 1.2
16-09-2020 28 (15:50) 12.7 (08:20) 20.3 7.5 (14:20) 3.33 (14:30) 0 0 0 0 0
15-09-2020 26.3 (16:20) 15.3 (06:30) 20.8 9.72 (00:50) 4.72 (16:10) 0 0 0 0 0
14-09-2020 28.1 (15:40) 14.4 (00:00) 21.3 10.56 (14:10) 5.28 (13:50) 0 0 0 0 0
13-09-2020 30.4 (16:50) 13.7 (00:00) 22 7.22 (18:30) 3.89 (11:50) 0 0 0 0 0
12-09-2020 28.9 (17:40) 11 (00:00) 19.9 6.94 (21:00) 3.33 (17:40) 0 0 0 0 0
11-09-2020 28.4 (17:30) 10 (00:00) 19.2 6.94 (15:50) 3.06 (12:20) 0 0 0 0 0
10-09-2020 25.2 (17:30) 10.1 (00:00) 17.7 7.22 (14:20) 3.61 (17:50) 0 0 0 0 0
09-09-2020 23.6 (15:20) 8.6 (00:00) 16.1 6.39 (18:30) 2.78 (16:30) 0 0 0 0 0
08-09-2020 22.9 (17:10) 5.8 (00:00) 14.3 9.17 (15:50) 3.61 (16:10) 0 0 0 0 0
07-09-2020 20.6 (17:30) 7.3 (07:40) 14 12.5 (11:40) 4.72 (14:00) 0 0 0 0 0
06-09-2020 28.6 (17:00) 12.6 (00:00) 20.6 9.72 (16:40) 4.72 (16:40) 0 0 0 0 0
05-09-2020 30.1 (17:50) 13 (00:00) 21.6 8.61 (19:40) 4.17 (01:50) 0 0 0 0 0
04-09-2020 29.2 (17:00) 12.8 (00:00) 21 6.67 (02:30) 4.44 (01:50) 0 0 0 0 0
03-09-2020 -- (--) -- (--) -- -- (--) -- (--) -- 0 0 -- 0
02-09-2020 25.1 (18:00) 7.9 (00:00) 16.5 6.11 (15:40) 2.78 (19:50) 0 0 0 0 0
01-09-2020 23.8 (15:30) 9.3 (00:00) 16.5 6.67 (15:00) 3.06 (17:40) 0 0 0 0 0
31-08-2020 22.4 (17:00) 4.1 (00:00) 13.2 8.33 (16:30) 3.61 (16:40) 0 0 0 0 0
30-08-2020 18.9 (17:20) 5.6 (00:00) 12.2 8.33 (00:20) 4.17 (16:00) 0 0 0 0 0
29-08-2020 19.3 (16:50) 8.7 (00:00) 14 10.28 (17:30) 5.56 (19:10) 0 0 0 0 0
28-08-2020 29 (18:00) 15 (00:00) 22 11.39 (15:40) 6.39 (15:50) 0 0 0 0 0
27-08-2020 32.8 (16:50) 15.9 (00:00) 24.3 8.33 (15:40) 4.72 (17:30) 0 0 0 0 0
26-08-2020 33.2 (17:20) 17.1 (00:00) 25.2 10.28 (13:40) 4.72 (14:10) 0 0 0 0 0
25-08-2020 32.3 (17:40) 16.8 (00:00) 24.5 8.89 (13:40) 4.44 (06:50) 0 0 0 0 0
24-08-2020 29.8 (18:00) 14.4 (00:00) 22.1 7.78 (18:10) 3.89 (17:00) 0 0 0 0 0
23-08-2020 29.6 (17:40) 12.3 (00:00) 21 6.67 (15:40) 3.06 (15:40) 0 0 0 0 0
22-08-2020 29.9 (17:40) 14.8 (00:00) 22.3 8.61 (15:10) 4.72 (16:40) 0 0 0 0 0
21-08-2020 29.7 (17:30) 15.8 (00:00) 22.8 11.39 (16:50) 6.11 (15:20) 0 0 0 0 0
20-08-2020 31.2 (17:00) 16.4 (00:00) 23.8 12.5 (19:20) 7.22 (19:20) 0 0 0 0 0

Gráficas

Temp. máximas Temp. mínimas Temp. medias Precipitaciones Rachas de viento máximas Velocidades máximas media en intervalos de 10 minutos

Datos horarios

Fecha y hora oficial Temperatura (ºC) Velocidad del viento (km/h) Dirección del viento Racha (km/h) Dirección de racha Precipitación (mm) Presión (hPa) Tendencia (hPa) Humedad (%)
2020-09-18 23:00:00 -- -- -- -- -- -- -- -- --
2020-09-18 22:00:00 -- -- -- -- -- -- -- -- --
2020-09-18 21:00:00 -- -- -- -- -- -- -- -- --
2020-09-18 20:00:00 13.8 8 Sudoeste 46 Sudoeste 0.6 -- -- 86
2020-09-18 19:00:00 16.2 13 Sudoeste 26 Sudoeste 0 -- -- 78
2020-09-18 18:00:00 16.8 9 Sudoeste 21 Sudoeste 0 -- -- 71
2020-09-18 17:00:00 17.5 9 Sur 18 Sudoeste 0 -- -- 71
2020-09-18 16:00:00 14.1 10 Sur 28 Sur 0.4 -- -- 86
2020-09-18 15:00:00 12.4 18 Sur 33 Sur 3.4 -- -- 89
2020-09-18 14:00:00 14.3 14 Sudoeste 34 Sudoeste 3.8 -- -- 83
2020-09-18 13:00:00 17.5 18 Sur 32 Sudoeste 0 -- -- 67
2020-09-18 12:00:00 17.3 17 Sudoeste 42 Sudoeste 0 -- -- 67
2020-09-18 11:00:00 16.3 19 Sudoeste 41 Sur 0 -- -- 70
2020-09-18 10:00:00 15.5 19 Sudoeste 44 Sur 0 -- -- 72
2020-09-18 09:00:00 15.5 17 Sudoeste 42 Sur 0 -- -- 75
2020-09-18 08:00:00 15.8 19 Sudoeste 37 Sur 0 -- -- 76
2020-09-18 07:00:00 15.7 16 Sur 39 Sur 0 -- -- 80
2020-09-18 06:00:00 15.8 19 Sur 33 Sudoeste 0 -- -- 82
2020-09-18 05:00:00 15.7 12 Sudoeste 24 Sudoeste 0 -- -- 84
2020-09-18 04:00:00 -- -- -- -- -- 0 -- -- --
2020-09-18 03:00:00 15.8 10 Sur 28 Sur 0 -- -- 83
2020-09-18 02:00:00 15.9 13 Sur 27 Sur 0 -- -- 79
2020-09-18 01:00:00 15.7 7 Sudeste 34 Sudeste 0.2 -- -- 84
2020-09-18 00:00:00 15.7 18 Sur 40 Sudeste 0 -- -- 83
2020-09-17 23:00:00 18.3 19 Sur 44 Sur 1.2 -- -- 73
2020-09-17 22:00:00 18.9 3 Este 18 Sur 0 -- -- 62
2020-09-17 21:00:00 19.9 7 Sur 20 Sur 0 -- -- 59
2020-09-17 20:00:00 20.8 6 Sur 30 Sudoeste 0 -- -- 57
2020-09-17 19:00:00 21.3 15 Sudoeste 36 Sudoeste 0 -- -- 54
2020-09-17 18:00:00 21.7 17 Sudoeste 39 Sudoeste 0 -- -- 53
2020-09-17 17:00:00 21.6 21 Sur 41 Sudoeste 0 -- -- 54
2020-09-17 16:00:00 22.6 20 Sudoeste 40 Sur 0 -- -- 51
2020-09-17 15:00:00 23.1 17 Sudoeste 37 Sudoeste 0 -- -- 47
2020-09-17 14:00:00 21.8 14 Sur 35 Sudoeste 0 -- -- 50
2020-09-17 13:00:00 21.4 15 Sudoeste 30 Sur 0 -- -- 52
2020-09-17 12:00:00 20.3 13 Sur 27 Sur 0 -- -- 57
2020-09-17 11:00:00 20.6 19 Sur 35 Sur 0 -- -- 54
2020-09-17 10:00:00 18 4 Sur 12 Sudeste 0 -- -- 61
2020-09-17 09:00:00 16.9 2 Este 6 Sur 0 -- -- 66
2020-09-17 08:00:00 16.7 2 Sudeste 8 Este 0 -- -- 65
2020-09-17 07:00:00 17.1 0 Calma 12 Sur 0 -- -- 65
2020-09-17 06:00:00 17.7 6 Sudoeste 25 Sur 0 -- -- 62
2020-09-17 05:00:00 18.4 14 Sudoeste 37 Sur 0 -- -- 58
2020-09-17 04:00:00 -- -- -- -- -- 0 -- -- --
2020-09-17 03:00:00 19.7 11 Sur 24 Sur 0 -- -- 50
2020-09-17 02:00:00 19.4 9 Sur 22 Sudeste 0 -- -- 55
2020-09-17 01:00:00 19.2 7 Sur 17 Sur 0 -- -- 58
2020-09-17 00:00:00 19.4 5 Sur 13 Sur 0 -- -- 57
2020-09-16 23:00:00 19.2 3 Este 10 Sudeste 0 -- -- 60
2020-09-16 22:00:00 19.2 4 Este 11 Este 0 -- -- 63
2020-09-16 21:00:00 19.6 5 Este 13 Este 0 -- -- 60
2020-09-16 20:00:00 20.4 4 Nordeste 11 Nordeste 0 -- -- 68
2020-09-16 19:00:00 22.3 6 Norte 14 Este 0 -- -- 58
2020-09-16 18:00:00 23.9 6 Nordeste 17 Este 0 -- -- 49
2020-09-16 17:00:00 25.8 8 Este 21 Nordeste 0 -- -- 41
2020-09-16 16:00:00 27.9 9 Nordeste 24 Sudoeste 0 -- -- 35
2020-09-16 15:00:00 27.4 9 Sur 27 Sur 0 -- -- 35
2020-09-16 14:00:00 26 8 Sudoeste 23 Oeste 0 -- -- 37
2020-09-16 13:00:00 23.7 3 Norte 13 Nordeste 0 -- -- 46
2020-09-16 12:00:00 21.7 6 Nordeste 12 Nordeste 0 -- -- 54
2020-09-16 11:00:00 19.1 6 Nordeste 9 Nordeste 0 -- -- 62
2020-09-16 10:00:00 15.5 3 Este 7 Nordeste 0 -- -- 74
2020-09-16 09:00:00 13.3 4 Nordeste 6 Nordeste 0 -- -- 80
2020-09-16 08:00:00 12.9 3 Nordeste 6 Nordeste 0 -- -- 77
2020-09-16 07:00:00 13.7 3 Nordeste 4 Nordeste 0 -- -- 74
2020-09-16 06:00:00 14.3 3 Nordeste 6 Nordeste 0 -- -- 72
2020-09-16 05:00:00 15.2 2 Nordeste 11 Sur 0 -- -- 69
2020-09-16 04:00:00 -- -- -- -- -- 0 -- -- --
2020-09-16 03:00:00 16.1 6 Sur 14 Sur 0 -- -- 68
2020-09-16 02:00:00 15.7 2 Este 5 Nordeste 0 -- -- 65
2020-09-16 01:00:00 16.4 3 Nordeste 4 Nordeste 0 -- -- 63
2020-09-16 00:00:00 17.1 0 Calma 7 Sur 0 -- -- 59
2020-09-15 23:00:00 18.2 5 Sur 6 Sur 0 -- -- 55
2020-09-15 22:00:00 20.1 3 Sudoeste 6 Oeste 0 -- -- 50
2020-09-15 21:00:00 21.7 3 Oeste 15 Sudoeste 0 -- -- 45
2020-09-15 20:00:00 23.4 11 Sudoeste 24 Oeste 0 -- -- 41
2020-09-15 19:00:00 24.4 17 Sudoeste 28 Sudoeste 0 -- -- 39
2020-09-15 18:00:00 24.9 11 Sudoeste 31 Sudoeste 0 -- -- 40
2020-09-15 17:00:00 26.1 15 Sudoeste 28 Sudoeste 0 -- -- 37
2020-09-15 16:00:00 25.7 12 Oeste 31 Sudoeste 0 -- -- 40
2020-09-15 15:00:00 25.4 15 Sudoeste 31 Sudoeste 0 -- -- 41
2020-09-15 14:00:00 24.3 16 Sudoeste 27 Oeste 0 -- -- 45
2020-09-15 13:00:00 23.5 8 Sudoeste 21 Sur 0 -- -- 47
2020-09-15 12:00:00 22.5 8 Sudoeste 19 Sudoeste 0 -- -- 50
2020-09-15 11:00:00 20.6 9 Sudoeste 17 Sudoeste 0 -- -- 54
2020-09-15 10:00:00 18 4 Nordeste 10 Nordeste 0 -- -- 66
2020-09-15 09:00:00 16.2 6 Oeste 21 Sur 0 -- -- 70
2020-09-15 08:00:00 15.5 11 Sur 24 Sur 0 -- -- 73
2020-09-15 07:00:00 15.5 13 Sur 24 Sur 0 -- -- 74
2020-09-15 06:00:00 15.9 12 Sur 22 Sudoeste 0 -- -- 73
2020-09-15 05:00:00 16.2 0 Calma 16 Sudoeste 0 -- -- 66
2020-09-15 04:00:00 -- -- -- -- -- 0 -- -- --
2020-09-15 03:00:00 17.8 0 Calma 13 Sudeste 0 -- -- 57
2020-09-15 02:00:00 18.8 9 Sur 25 Sur 0 -- -- 56
2020-09-15 01:00:00 19.5 13 Sur 35 Sur 0 -- -- 54
2020-09-15 00:00:00 20.2 14 Sur 34 Sur 0 -- -- 52
2020-09-14 23:00:00 20.9 14 Sur 33 Sudoeste 0 -- -- 47
2020-09-14 22:00:00 21.3 10 Sur 31 Sur 0 -- -- 47
2020-09-14 21:00:00 21.9 6 Sur 19 Sudoeste 0 -- -- 44
2020-09-14 20:00:00 22.9 9 Sudoeste 17 Sudoeste 0 -- -- 44
2020-09-14 19:00:00 23.5 3 Nordeste 16 Sudoeste 0 -- -- 44
2020-09-14 18:00:00 24 12 Sudoeste 23 Sudoeste 0 -- -- 37
2020-09-14 17:00:00 25.1 15 Sudoeste 30 Sudoeste 0 -- -- 33
2020-09-14 16:00:00 27 19 Sudoeste 31 Sudoeste 0 -- -- 31
2020-09-14 15:00:00 27.2 9 Sudoeste 38 Sudoeste 0 -- -- 29
2020-09-14 14:00:00 26.3 17 Sudoeste 34 Oeste 0 -- -- 30
2020-09-14 13:00:00 24.3 8 Sur 27 Sur 0 -- -- 36
2020-09-14 12:00:00 24.2 14 Sur 32 Sur 0 -- -- 33
2020-09-14 11:00:00 21.6 17 Sur 33 Sur 0 -- -- 38
2020-09-14 10:00:00 17.2 4 Nordeste 13 Nordeste 0 -- -- 56
2020-09-14 09:00:00 14.7 4 Nordeste 8 Nordeste 0 -- -- 63
2020-09-14 08:00:00 14.8 2 Nordeste 10 Este 0 -- -- 62
2020-09-14 07:00:00 14.9 2 Este 13 Sur 0 -- -- 62
2020-09-14 06:00:00 15.5 6 Sur 13 Sur 0 -- -- 60
2020-09-14 05:00:00 16 7 Sur 16 Sur 0 -- -- 60
2020-09-14 04:00:00 -- -- -- -- -- 0 -- -- --
2020-09-14 03:00:00 17 9 Sur 22 Sur 0 -- -- 49
2020-09-14 02:00:00 17.7 14 Sudoeste 25 Sudeste 0 -- -- 45
2020-09-14 01:00:00 18.3 16 Sur 22 Sur 0 -- -- 46
2020-09-14 00:00:00 19.5 11 Sur 23 Sur 0 -- -- 47
2020-09-13 23:00:00 20.8 10 Sur 19 Sudoeste 0 -- -- 44
2020-09-13 22:00:00 22.2 10 Sudoeste 21 Sudoeste 0 -- -- 38
2020-09-13 21:00:00 23.8 9 Sudoeste 24 Sudoeste 0 -- -- 35
2020-09-13 20:00:00 25.6 8 Sudoeste 17 Sudoeste 0 -- -- 30
2020-09-13 19:00:00 26.5 10 Sudoeste 26 Oeste 0 -- -- 29
2020-09-13 18:00:00 28 10 Oeste 25 Noroeste 0 -- -- 28
2020-09-13 17:00:00 30.4 9 Sudoeste 24 Sur 0 -- -- 24
2020-09-13 16:00:00 29.9 10 Sur 22 Sur 0 -- -- 25
2020-09-13 15:00:00 28.6 7 Sudoeste 25 Sudoeste 0 -- -- 28
2020-09-13 14:00:00 27.6 7 Sudoeste 26 Sudoeste 0 -- -- 29
2020-09-13 13:00:00 26.7 12 Sudoeste 26 Sudoeste 0 -- -- 29
2020-09-13 12:00:00 25 10 Sur 26 Sudoeste 0 -- -- 31
2020-09-13 11:00:00 22 10 Sur 21 Sur 0 -- -- 40
2020-09-13 10:00:00 17.4 3 Nordeste 5 Nordeste 0 -- -- 62
2020-09-13 09:00:00 14.1 3 Nordeste 5 Nordeste 0 -- -- 73
2020-09-13 08:00:00 13.8 3 Nordeste 6 Este 0 -- -- 72
2020-09-13 07:00:00 14.8 0 Calma 15 Sur 0 -- -- 66
2020-09-13 06:00:00 16.2 9 Sur 20 Sur 0 -- -- 61
2020-09-13 05:00:00 16.4 11 Sur 20 Sur 0 -- -- 62
2020-09-13 04:00:00 -- -- -- -- -- 0 -- -- --
2020-09-13 03:00:00 17.1 9 Sur 18 Sur 0 -- -- 64
2020-09-13 02:00:00 17.4 3 Sudeste 12 Sur 0 -- -- 65
2020-09-13 01:00:00 18.3 4 Este 15 Este 0 -- -- 57
2020-09-13 00:00:00 19.3 8 Este 18 Este 0 -- -- 54
2020-09-12 23:00:00 20 6 Nordeste 18 Nordeste 0 -- -- 52
2020-09-12 22:00:00 21.2 9 Este 22 Este 0 -- -- 48
2020-09-12 21:00:00 22.9 10 Este 25 Este 0 -- -- 42
2020-09-12 20:00:00 25 10 Nordeste 18 Norte 0 -- -- 36
2020-09-12 19:00:00 26.9 4 Norte 17 Oeste 0 -- -- 28
2020-09-12 18:00:00 28.3 8 Sudoeste 22 Sudoeste 0 -- -- 27
2020-09-12 17:00:00 28.6 4 Sudoeste 21 Oeste 0 -- -- 27
2020-09-12 16:00:00 28 6 Norte 23 Noroeste 0 -- -- 28
2020-09-12 15:00:00 26.8 10 Noroeste 22 Noroeste 0 -- -- 32
2020-09-12 14:00:00 26.2 5 Norte 16 Oeste 0 -- -- 36
2020-09-12 13:00:00 25.2 3 Noroeste 14 Nordeste 0 -- -- 40
2020-09-12 12:00:00 22.5 4 Nordeste 13 Norte 0 -- -- 47
2020-09-12 11:00:00 18.5 6 Nordeste 10 Nordeste 0 -- -- 57
2020-09-12 10:00:00 14.9 5 Nordeste 9 Nordeste 0 -- -- 67
2020-09-12 09:00:00 11.6 6 Nordeste 12 Nordeste 0 -- -- 74
2020-09-12 08:00:00 11.1 5 Nordeste 9 Norte 0 -- -- 71
2020-09-12 07:00:00 13 4 Nordeste 8 Este 0 -- -- 66
2020-09-12 06:00:00 12.9 4 Este 6 Nordeste 0 -- -- 64
2020-09-12 05:00:00 13.9 3 Nordeste 6 Nordeste 0 -- -- 62
2020-09-12 04:00:00 -- -- -- -- -- 0 -- -- --
2020-09-12 03:00:00 16.2 6 Sudeste 17 Este 0 -- -- 56
2020-09-12 02:00:00 16.7 7 Este 15 Este 0 -- -- 54
2020-09-12 01:00:00 17.1 7 Este 15 Nordeste 0 -- -- 50
2020-09-12 00:00:00 17.9 5 Nordeste 13 Nordeste 0 -- -- 47
2020-09-11 23:00:00 19.2 6 Nordeste 15 Este 0 -- -- 42
2020-09-11 22:00:00 20.9 5 Este 15 Nordeste 0 -- -- 37
2020-09-11 21:00:00 22.3 4 Este 10 Este 0 -- -- 33
2020-09-11 20:00:00 24.1 4 Noroeste 11 Norte 0 -- -- 30
2020-09-11 19:00:00 25.7 7 Norte 13 Norte 0 -- -- 27
2020-09-11 18:00:00 27.6 9 Oeste 22 Oeste 0 -- -- 26
2020-09-11 17:00:00 27.7 8 Oeste 23 Sudoeste 0 -- -- 25
2020-09-11 16:00:00 27.4 10 Oeste 25 Sudoeste 0 -- -- 29
2020-09-11 15:00:00 26.1 6 Norte 20 Norte 0 -- -- 30
2020-09-11 14:00:00 25.1 9 Noroeste 24 Oeste 0 -- -- 34
2020-09-11 13:00:00 23.9 9 Oeste 23 Oeste 0 -- -- 36
2020-09-11 12:00:00 22.5 9 Oeste 17 Sudoeste 0 -- -- 37
2020-09-11 11:00:00 18.9 3 Norte 6 Oeste 0 -- -- 51
2020-09-11 10:00:00 13.4 4 Nordeste 9 Nordeste 0 -- -- 62
2020-09-11 09:00:00 10.2 0 Calma 4 Este 0 -- -- 71
2020-09-11 08:00:00 10.6 3 Sudeste 6 Sur 0 -- -- 66
2020-09-11 07:00:00 10.6 3 Sudeste 6 Sur 0 -- -- 65
2020-09-11 06:00:00 11 2 Sudeste 6 Sur 0 -- -- 64
2020-09-11 05:00:00 11.3 0 Calma 17 Sur 0 -- -- 62
2020-09-11 04:00:00 -- -- -- -- -- 0 -- -- --
2020-09-11 03:00:00 13.9 3 Sudeste 6 Este 0 -- -- 55
2020-09-11 02:00:00 14.5 3 Nordeste 7 Nordeste 0 -- -- 53
2020-09-11 01:00:00 15.5 5 Este 10 Este 0 -- -- 50
2020-09-11 00:00:00 16.3 5 Este 9 Este 0 -- -- 49
2020-09-10 23:00:00 17.5 4 Nordeste 14 Este 0 -- -- 46
2020-09-10 22:00:00 18.7 6 Este 13 Este 0 -- -- 44
2020-09-10 21:00:00 20 5 Este 18 Nordeste 0 -- -- 42
2020-09-10 20:00:00 21.6 6 Nordeste 20 Nordeste 0 -- -- 40
2020-09-10 19:00:00 22.8 8 Nordeste 23 Norte 0 -- -- 38
2020-09-10 18:00:00 24.6 12 Nordeste 25 Nordeste 0 -- -- 34
2020-09-10 17:00:00 24.6 9 Nordeste 21 Nordeste 0 -- -- 35
2020-09-10 16:00:00 25 10 Nordeste 22 Norte 0 -- -- 34
2020-09-10 15:00:00 23.5 9 Norte 26 Nordeste 0 -- -- 38
2020-09-10 14:00:00 23.8 10 Nordeste 23 Nordeste 0 -- -- 39
2020-09-10 13:00:00 22.5 6 Sudeste 19 Nordeste 0 -- -- 46
2020-09-10 12:00:00 20.1 7 Norte 18 Nordeste 0 -- -- 54
2020-09-10 11:00:00 17.8 6 Nordeste 13 Nordeste 0 -- -- 62
2020-09-10 10:00:00 13.7 5 Nordeste 9 Nordeste 0 -- -- 73
2020-09-10 09:00:00 10.8 3 Nordeste 5 Nordeste 0 -- -- 79
2020-09-10 08:00:00 10.1 3 Este 6 Nordeste 0 -- -- 76
2020-09-10 07:00:00 10.5 3 Nordeste 6 Este 0 -- -- 74
2020-09-10 06:00:00 11.4 4 Este 7 Nordeste 0 -- -- 72
2020-09-10 05:00:00 12 3 Nordeste 5 Nordeste 0 -- -- 66
2020-09-10 04:00:00 -- -- -- -- -- 0 -- -- --
2020-09-10 03:00:00 14.5 3 Nordeste 12 Este 0 -- -- 63
2020-09-10 02:00:00 15.1 4 Este 8 Este 0 -- -- 54
2020-09-10 01:00:00 15.8 3 Nordeste 9 Nordeste 0 -- -- 51
2020-09-10 00:00:00 16.5 3 Nordeste 10 Este 0 -- -- 48
2020-09-09 23:00:00 17.3 3 Sudeste 9 Este 0 -- -- 45
2020-09-09 22:00:00 18.3 6 Este 12 Nordeste 0 -- -- 42
2020-09-09 21:00:00 19.4 2 Este 17 Nordeste 0 -- -- 38
2020-09-09 20:00:00 21.5 5 Nordeste 19 Nordeste 0 -- -- 35
2020-09-09 19:00:00 22.1 5 Nordeste 23 Nordeste 0 -- -- 35
2020-09-09 18:00:00 23.5 5 Norte 18 Nordeste 0 -- -- 33
2020-09-09 17:00:00 23 8 Noroeste 19 Sudeste 0 -- -- 34
2020-09-09 16:00:00 23.3 3 Norte 19 Norte 0 -- -- 34
2020-09-09 15:00:00 22.2 6 Nordeste 17 Norte 0 -- -- 39
2020-09-09 14:00:00 22.4 6 Oeste 15 Oeste 0 -- -- 39
2020-09-09 13:00:00 20.8 5 Este 16 Nordeste 0 -- -- 43
2020-09-09 12:00:00 19.5 5 Este 21 Nordeste 0 -- -- 45
2020-09-09 11:00:00 17.2 6 Oeste 17 Sudoeste 0 -- -- 50
2020-09-09 10:00:00 13.6 0 Calma 5 Sur 0 -- -- 63
2020-09-09 09:00:00 9.4 0 Calma 5 Sudoeste 0 -- -- 71
2020-09-09 08:00:00 8.6 2 Este 8 Nordeste 0 -- -- 71
2020-09-09 07:00:00 9.4 0 Calma 4 Sudoeste 0 -- -- 67
2020-09-09 06:00:00 9.9 0 Calma 7 Nordeste 0 -- -- 65
2020-09-09 05:00:00 10.6 0 Calma 8 Nordeste 0 -- -- 63
2020-09-09 04:00:00 -- -- -- -- -- 0 -- -- --
2020-09-09 03:00:00 12.5 3 Este 10 Sudeste 0 -- -- 59
2020-09-09 02:00:00 12.9 4 Este 10 Sur 0 -- -- 56
2020-09-09 01:00:00 14 3 Sudeste 5 Este 0 -- -- 52
2020-09-09 00:00:00 14.7 0 Calma 8 Nordeste 0 -- -- 50
2020-09-08 23:00:00 15.6 4 Nordeste 16 Este 0 -- -- 48
2020-09-08 22:00:00 16.4 8 Este 26 Nordeste 0 -- -- 44
2020-09-08 21:00:00 18.1 10 Este 25 Nordeste 0 -- -- 38
2020-09-08 20:00:00 19.9 8 Nordeste 19 Nordeste 0 -- -- 35
2020-09-08 19:00:00 21 8 Nordeste 27 Nordeste 0 -- -- 31
2020-09-08 18:00:00 22.4 12 Nordeste 31 Nordeste 0 -- -- 29
2020-09-08 17:00:00 22.7 9 Nordeste 27 Nordeste 0 -- -- 28
2020-09-08 16:00:00 22.2 12 Nordeste 33 Nordeste 0 -- -- 29
2020-09-08 15:00:00 21.5 12 Nordeste 32 Nordeste 0 -- -- 32
2020-09-08 14:00:00 20.7 11 Este 24 Este 0 -- -- 35
2020-09-08 13:00:00 19.4 6 Nordeste 22 Este 0 -- -- 43
2020-09-08 12:00:00 17.1 5 Este 19 Nordeste 0 -- -- 52
2020-09-08 11:00:00 14 6 Nordeste 15 Norte 0 -- -- 59
2020-09-08 10:00:00 9.9 8 Nordeste 13 Nordeste 0 -- -- 72
2020-09-08 09:00:00 6.6 4 Nordeste 10 Este 0 -- -- 82
2020-09-08 08:00:00 5.9 3 Nordeste 9 Nordeste 0 -- -- 82
2020-09-08 07:00:00 6.7 6 Este 17 Este 0 -- -- 78
2020-09-08 06:00:00 6.9 6 Nordeste 17 Este 0 -- -- 77
2020-09-08 05:00:00 6.6 4 Este 13 Nordeste 0 -- -- 73
2020-09-08 04:00:00 -- -- -- -- -- 0 -- -- --
2020-09-08 03:00:00 8.1 3 Nordeste 8 Este 0 -- -- 65
2020-09-08 02:00:00 9.1 3 Nordeste 9 Nordeste 0 -- -- 61
2020-09-08 01:00:00 10.1 3 Este 11 Este 0 -- -- 57
2020-09-08 00:00:00 11 4 Nordeste 15 Nordeste 0 -- -- 53
2020-09-07 23:00:00 12.5 7 Nordeste 18 Nordeste 0 -- -- 50
2020-09-07 22:00:00 13.9 4 Nordeste 26 Norte 0 -- -- 45
2020-09-07 21:00:00 15.5 13 Nordeste 29 Nordeste 0 -- -- 38
2020-09-07 20:00:00 17.3 13 Norte 23 Nordeste 0 -- -- 33
2020-09-07 19:00:00 18.7 14 Norte 26 Este 0 -- -- 32
2020-09-07 18:00:00 20.4 14 Nordeste 30 Norte 0 -- -- 30
2020-09-07 17:00:00 20.5 10 Nordeste 31 Norte 0 -- -- 32
2020-09-07 16:00:00 20.1 13 Nordeste 30 Nordeste 0 -- -- 35
2020-09-07 15:00:00 19.5 13 Nordeste 28 Nordeste 0 -- -- 40
2020-09-07 14:00:00 18 17 Nordeste 36 Nordeste 0 -- -- 44
2020-09-07 13:00:00 16.9 14 Nordeste 26 Norte 0 -- -- 47
2020-09-07 12:00:00 14.9 12 Nordeste 45 Norte 0 -- -- 56
2020-09-07 11:00:00 12.7 10 Nordeste 26 Este 0 -- -- 64
2020-09-07 10:00:00 11 9 Nordeste 22 Norte 0 -- -- 68
2020-09-07 09:00:00 8.5 6 Nordeste 14 Nordeste 0 -- -- 79
2020-09-07 08:00:00 7.4 6 Nordeste 16 Nordeste 0 -- -- 85
2020-09-07 07:00:00 7.6 4 Nordeste 12 Norte 0 -- -- 84
2020-09-07 06:00:00 8.1 6 Nordeste 12 Nordeste 0 -- -- 84
2020-09-07 05:00:00 9 4 Nordeste 13 Este 0 -- -- 80
2020-09-07 04:00:00 -- -- -- -- -- 0 -- -- --
2020-09-07 03:00:00 11.4 7 Nordeste 19 Nordeste 0 -- -- 73
2020-09-07 02:00:00 12.2 5 Nordeste 14 Nordeste 0 -- -- 71
2020-09-07 01:00:00 13.4 6 Nordeste 15 Nordeste 0 -- -- 67
2020-09-07 00:00:00 14.6 6 Nordeste 18 Nordeste 0 -- -- 63
2020-09-06 23:00:00 16.1 7 Nordeste 21 Nordeste 0 -- -- 60
2020-09-06 22:00:00 18.7 7 Nordeste 17 Nordeste 0 -- -- 56
2020-09-06 21:00:00 20.9 8 Nordeste 21 Nordeste 0 -- -- 51
2020-09-06 20:00:00 22.8 7 Nordeste 23 Nordeste 0 -- -- 46
2020-09-06 19:00:00 26.5 9 Oeste 30 Sudoeste 0 -- -- 27
2020-09-06 18:00:00 27.7 13 Oeste 29 Sudoeste 0 -- -- 27
2020-09-06 17:00:00 28.6 10 Sudoeste 35 Sudoeste 0 -- -- 26
2020-09-06 16:00:00 27.2 13 Oeste 31 Sudoeste 0 -- -- 27
2020-09-06 15:00:00 27.3 12 Oeste 26 Noroeste 0 -- -- 31
2020-09-06 14:00:00 25.8 12 Noroeste 25 Noroeste 0 -- -- 35
2020-09-06 13:00:00 24.8 7 Oeste 18 Oeste 0 -- -- 37
2020-09-06 12:00:00 21.6 0 Calma 9 Nordeste 0 -- -- 47
2020-09-06 11:00:00 18 3 Nordeste 10 Norte 0 -- -- 62
2020-09-06 10:00:00 15 5 Nordeste 9 Nordeste 0 -- -- 77
2020-09-06 09:00:00 12.8 3 Nordeste 5 Nordeste 0 -- -- 83
2020-09-06 08:00:00 12.7 2 Nordeste 5 Sudeste 0 -- -- 82
2020-09-06 07:00:00 13.6 0 Calma 6 Sudeste 0 -- -- 78
2020-09-06 06:00:00 14.4 5 Este 8 Sudeste 0 -- -- 77
2020-09-06 05:00:00 14.9 3 Nordeste 5 Nordeste 0 -- -- 76
2020-09-06 04:00:00 -- -- -- -- -- 0 -- -- --
2020-09-06 03:00:00 16.3 3 Este 11 Nordeste 0 -- -- 73
2020-09-06 02:00:00 17.1 0 Calma 7 Este 0 -- -- 67
2020-09-06 01:00:00 18 5 Este 9 Este 0 -- -- 64
2020-09-06 00:00:00 18.9 5 Nordeste 12 Nordeste 0 -- -- 59
2020-09-05 23:00:00 20.2 5 Nordeste 22 Este 0 -- -- 53
2020-09-05 22:00:00 21.4 10 Este 21 Este 0 -- -- 49
2020-09-05 21:00:00 23 10 Este 27 Este 0 -- -- 45
2020-09-05 20:00:00 25.2 11 Nordeste 31 Este 0 -- -- 39
2020-09-05 19:00:00 28 8 Este 17 Este 0 -- -- 30
2020-09-05 18:00:00 29.9 4 Nordeste 15 Nordeste 0 -- -- 25
2020-09-05 17:00:00 29.5 6 Nordeste 22 Nordeste 0 -- -- 26
2020-09-05 16:00:00 29.3 10 Nordeste 24 Nordeste 0 -- -- 27
2020-09-05 15:00:00 29.1 6 Este 23 Este 0 -- -- 26
2020-09-05 14:00:00 27.2 4 Nordeste 18 Norte 0 -- -- 33
2020-09-05 13:00:00 25.4 5 Nordeste 15 Nordeste 0 -- -- 39
2020-09-05 12:00:00 23.4 5 Nordeste 12 Nordeste 0 -- -- 45
2020-09-05 11:00:00 20.4 4 Nordeste 7 Nordeste 0 -- -- 57
2020-09-05 10:00:00 17 3 Nordeste 5 Nordeste 0 -- -- 63
2020-09-05 09:00:00 13.3 5 Nordeste 8 Nordeste 0 -- -- 70
2020-09-05 08:00:00 13.4 0 Calma 9 Sur 0 -- -- 68
2020-09-05 07:00:00 14.1 3 Sudeste 10 Sudeste 0 -- -- 72
2020-09-05 06:00:00 14.5 0 Calma 6 Sur 0 -- -- 69
2020-09-05 05:00:00 15.1 4 Sudoeste 17 Sur 0 -- -- 64
2020-09-05 04:00:00 -- -- -- -- -- 0 -- -- --
2020-09-05 03:00:00 16.3 4 Sudoeste 19 Sur 0 -- -- 53
2020-09-05 02:00:00 17.4 14 Sur 22 Sur 0 -- -- 47
2020-09-05 01:00:00 18.5 12 Sudoeste 21 Sur 0 -- -- 43
2020-09-05 00:00:00 20 11 Sudoeste 19 Sudoeste 0 -- -- 39
2020-09-04 23:00:00 21.3 7 Sudoeste 15 Sur 0 -- -- 36
2020-09-04 22:00:00 23.2 5 Oeste 14 Sudoeste 0 -- -- 35
2020-09-04 21:00:00 25.1 11 Sudoeste 21 Oeste 0 -- -- 33
2020-09-04 20:00:00 27.2 8 Oeste 18 Oeste 0 -- -- 30
2020-09-04 19:00:00 28 8 Oeste 18 Sudoeste 0 -- -- 29
2020-09-04 18:00:00 29 6 Oeste 21 Oeste 0 -- -- 28
2020-09-04 17:00:00 29.2 8 Sudoeste 23 Oeste 0 -- -- 29
2020-09-04 16:00:00 28.5 7 Noroeste 22 Sudoeste 0 -- -- 31
2020-09-04 15:00:00 27.8 7 Noroeste 20 Oeste 0 -- -- 34
2020-09-04 14:00:00 26.5 4 Sur 15 Noroeste 0 -- -- 36
2020-09-04 13:00:00 24.9 4 Norte 12 Norte 0 -- -- 42
2020-09-04 12:00:00 22.9 4 Norte 12 Oeste 0 -- -- 48
2020-09-04 11:00:00 20.1 4 Oeste 8 Oeste 0 -- -- 51
2020-09-04 10:00:00 16.4 4 Nordeste 6 Nordeste 0 -- -- 67
2020-09-04 09:00:00 13 3 Nordeste 5 Nordeste 0 -- -- 79
2020-09-04 08:00:00 12.8 2 Nordeste 4 Nordeste 0 -- -- 77
2020-09-04 07:00:00 13.6 0 Calma 4 Este 0 -- -- 76
2020-09-04 06:00:00 14.1 0 Calma 5 Sur 0 -- -- 75
2020-09-04 05:00:00 14.9 0 Calma 17 Sur 0 -- -- 74
2020-09-04 04:00:00 -- -- -- -- -- 0 -- -- --
2020-09-04 03:00:00 16.7 15 Sur 24 Sur 0 -- -- 69
2020-09-04 02:00:00 17.1 16 Sur 23 Sur 0 -- -- 63
2020-09-04 01:00:00 17.2 14 Sur 21 Sur 0 -- -- 47
2020-09-04 00:00:00 19.3 4 Sudeste 10 Este 0 -- -- 42
2020-09-03 23:00:00 20.2 6 Este 19 Nordeste 0 -- -- 41
2020-09-03 22:00:00 21.7 2 Oeste 12 Sudoeste 0 -- -- 33
2020-09-03 21:00:00 24.1 8 Sudoeste 17 Oeste 0 -- -- 29
2020-09-03 20:00:00 26 9 Oeste 18 Oeste 0 -- -- 28
2020-09-03 19:00:00 26.8 10 Oeste 21 Oeste 0 -- -- 28
2020-09-03 18:00:00 27.6 8 Norte 17 Oeste 0 -- -- 27
2020-09-03 17:00:00 28 8 Oeste 18 Oeste 0 -- -- 25
2020-09-03 16:00:00 -- -- -- -- -- -- -- -- --
2020-09-03 15:00:00 26.6 6 Sudoeste 19 Oeste 0 -- -- 30
2020-09-03 14:00:00 26.1 6 Sudoeste 17 Oeste 0 -- -- 32
2020-09-03 13:00:00 24 6 Oeste 18 Oeste 0 -- -- 37
2020-09-03 12:00:00 22.4 6 Oeste 16 Oeste 0 -- -- 46
2020-09-03 11:00:00 19 3 Noroeste 8 Nordeste 0 -- -- 56
2020-09-03 10:00:00 14.4 3 Nordeste 9 Sur 0 -- -- 65
2020-09-03 09:00:00 10 3 Nordeste 7 Nordeste 0 -- -- 71
2020-09-03 08:00:00 9.3 4 Nordeste 6 Nordeste 0 -- -- 68
2020-09-03 07:00:00 9.8 3 Nordeste 6 Nordeste 0 -- -- 65
2020-09-03 06:00:00 10.5 2 Nordeste 13 Sur 0 -- -- 59
2020-09-03 05:00:00 12.3 6 Sur 14 Sur 0 -- -- 76
2020-09-03 04:00:00 -- -- -- -- -- 0 -- -- --
2020-09-03 03:00:00 13.2 3 Nordeste 15 Sur 0 -- -- 49
2020-09-03 02:00:00 13.3 4 Nordeste 11 Nordeste 0 -- -- 49
2020-09-03 01:00:00 14.2 6 Nordeste 13 Nordeste 0 -- -- 46
2020-09-03 00:00:00 15.4 5 Nordeste 13 Este 0 -- -- 41
2020-09-02 23:00:00 16.9 6 Este 14 Nordeste 0 -- -- 36
2020-09-02 22:00:00 18.4 7 Sudeste 9 Este 0 -- -- 30
2020-09-02 21:00:00 19.7 3 Nordeste 18 Norte 0 -- -- 30
2020-09-02 20:00:00 21.9 10 Norte 19 Norte 0 -- -- 28
2020-09-02 19:00:00 23.7 5 Noroeste 18 Oeste 0 -- -- 26
2020-09-02 18:00:00 25.1 3 Norte 13 Nordeste 0 -- -- 27
2020-09-02 17:00:00 24.9 5 Nordeste 17 Norte 0 -- -- 27
2020-09-02 16:00:00 24.3 6 Sur 22 Norte 0 -- -- 29
2020-09-02 15:00:00 23 5 Sudoeste 18 Oeste 0 -- -- 32
2020-09-02 14:00:00 21.4 6 Oeste 20 Oeste 0 -- -- 34
2020-09-02 13:00:00 20.8 8 Oeste 19 Oeste 0 -- -- 36
2020-09-02 12:00:00 18.9 3 Nordeste 11 Nordeste 0 -- -- 42
2020-09-02 11:00:00 15.1 6 Nordeste 12 Nordeste 0 -- -- 53
2020-09-02 10:00:00 11.2 7 Nordeste 12 Nordeste 0 -- -- 60
2020-09-02 09:00:00 8.5 6 Nordeste 10 Nordeste 0 -- -- 67
2020-09-02 08:00:00 7.9 4 Nordeste 9 Este 0 -- -- 68
2020-09-02 07:00:00 8.5 4 Nordeste 8 Este 0 -- -- 66
2020-09-02 06:00:00 9 4 Nordeste 9 Nordeste 0 -- -- 64
2020-09-02 05:00:00 9.7 4 Nordeste 9 Nordeste 0 -- -- 59
2020-09-02 04:00:00 -- -- -- -- -- 0 -- -- --
2020-09-02 03:00:00 11.3 4 Nordeste 11 Este 0 -- -- 51
2020-09-02 02:00:00 12.4 4 Nordeste 16 Este 0 -- -- 47
2020-09-02 01:00:00 13.8 7 Este 14 Este 0 -- -- 44
2020-09-02 00:00:00 15.3 9 Este 20 Este 0 -- -- 40
2020-09-01 23:00:00 16.1 10 Este 19 Este 0 -- -- 40
2020-09-01 22:00:00 17.6 6 Nordeste 15 Nordeste 0 -- -- 33
2020-09-01 21:00:00 19.3 6 Sudoeste 16 Oeste 0 -- -- 34
2020-09-01 20:00:00 20.6 4 Sudoeste 13 Sudoeste 0 -- -- 31
2020-09-01 19:00:00 21.4 10 Sudoeste 19 Oeste 0 -- -- 29
2020-09-01 18:00:00 21.9 10 Oeste 21 Oeste 0 -- -- 29
2020-09-01 17:00:00 21.9 7 Noroeste 21 Noroeste 0 -- -- 28
2020-09-01 16:00:00 22.8 9 Norte 18 Noroeste 0 -- -- 28
2020-09-01 15:00:00 22.6 8 Noroeste 24 Oeste 0 -- -- 29
2020-09-01 14:00:00 21.5 6 Oeste 18 Noroeste 0 -- -- 31
2020-09-01 13:00:00 20.2 4 Oeste 12 Oeste 0 -- -- 32
2020-09-01 12:00:00 17.5 6 Oeste 12 Oeste 0 -- -- 42
2020-09-01 11:00:00 13.9 3 Nordeste 8 Nordeste 0 -- -- 51
2020-09-01 10:00:00 11.1 3 Sudoeste 15 Sur 0 -- -- 57
2020-09-01 09:00:00 11.8 9 Sur 14 Sur 0 -- -- 66
2020-09-01 08:00:00 10.2 5 Sur 12 Sur 0 -- -- 59
2020-09-01 07:00:00 10.1 7 Sur 16 Sur 0 -- -- 47
2020-09-01 06:00:00 10 3 Sudeste 17 Sur 0 -- -- 48
2020-09-01 05:00:00 9.5 0 Calma 5 Sur 0 -- -- 49
2020-09-01 04:00:00 -- -- -- -- -- 0 -- -- --
2020-09-01 03:00:00 10 2 Sudeste 6 Sur 0 -- -- 45
2020-09-01 02:00:00 10.7 0 Calma 5 Sudeste 0 -- -- 44
2020-09-01 01:00:00 11.8 0 Calma 7 Sur 0 -- -- 42
2020-09-01 00:00:00 13 4 Sur 8 Sur 0 -- -- 39
2020-08-31 23:00:00 15.2 3 Sudoeste 6 Oeste 0 -- -- 36
2020-08-31 22:00:00 17.2 4 Oeste 10 Oeste 0 -- -- 32
2020-08-31 21:00:00 18.4 5 Oeste 12 Oeste 0 -- -- 31
2020-08-31 20:00:00 20 7 Oeste 15 Oeste 0 -- -- 27
2020-08-31 19:00:00 21.3 8 Oeste 25 Sudoeste 0 -- -- 24
2020-08-31 18:00:00 22 10 Oeste 26 Sudoeste 0 -- -- 26
2020-08-31 17:00:00 22.4 10 Oeste 30 Noroeste 0 -- -- 23
2020-08-31 16:00:00 22 10 Oeste 25 Oeste 0 -- -- 23
2020-08-31 15:00:00 21.3 9 Sudoeste 20 Oeste 0 -- -- 26
2020-08-31 14:00:00 19.5 8 Oeste 16 Noroeste 0 -- -- 31
2020-08-31 13:00:00 17.7 4 Noroeste 19 Oeste 0 -- -- 29
2020-08-31 12:00:00 16.3 9 Oeste 19 Oeste 0 -- -- 35
2020-08-31 11:00:00 13.1 3 Nordeste 8 Nordeste 0 -- -- 54
2020-08-31 10:00:00 9.1 2 Nordeste 4 Nordeste 0 -- -- 72
2020-08-31 09:00:00 4.8 0 Calma 4 Nordeste 0 -- -- 87
2020-08-31 08:00:00 4.1 0 Calma 4 Nordeste 0 -- -- 86
2020-08-31 07:00:00 4.8 2 Nordeste 5 Este 0 -- -- 83
2020-08-31 06:00:00 5.4 3 Este 5 Este 0 -- -- 83
2020-08-31 05:00:00 6.6 4 Este 8 Este 0 -- -- 79
2020-08-31 04:00:00 -- -- -- -- -- 0 -- -- --
2020-08-31 03:00:00 7.6 4 Este 10 Este 0 -- -- 76
2020-08-31 02:00:00 8.4 4 Este 15 Este 0 -- -- 71
2020-08-31 01:00:00 9.1 5 Este 9 Nordeste 0 -- -- 66
2020-08-31 00:00:00 10 5 Nordeste 13 Nordeste 0 -- -- 62
2020-08-30 23:00:00 11.1 4 Nordeste 27 Norte 0 -- -- 57
2020-08-30 22:00:00 12.2 6 Nordeste 24 Norte 0 -- -- 53
2020-08-30 21:00:00 13.6 5 Nordeste 22 Norte 0 -- -- 43
2020-08-30 20:00:00 16.1 13 Norte 23 Norte 0 -- -- 37
2020-08-30 19:00:00 17.5 6 Nordeste 19 Nordeste 0 -- -- 30
2020-08-30 18:00:00 18.3 8 Norte 22 Norte 0 -- -- 29
2020-08-30 17:00:00 18.7 7 Nordeste 27 Nordeste 0 -- -- 30
2020-08-30 16:00:00 18.1 15 Norte 28 Norte 0 -- -- 33
2020-08-30 15:00:00 17.3 8 Nordeste 25 Norte 0 -- -- 33
2020-08-30 14:00:00 16.6 10 Nordeste 27 Nordeste 0 -- -- 37
2020-08-30 13:00:00 15.5 9 Nordeste 25 Nordeste 0 -- -- 41
2020-08-30 12:00:00 14 10 Nordeste 26 Nordeste 0 -- -- 43
2020-08-30 11:00:00 11.9 12 Nordeste 22 Este 0 -- -- 55
2020-08-30 10:00:00 9.2 6 Nordeste 14 Nordeste 0 -- -- 72
2020-08-30 09:00:00 6.4 3 Nordeste 9 Norte 0 -- -- 83
2020-08-30 08:00:00 5.6 2 Norte 7 Nordeste 0 -- -- 83
2020-08-30 07:00:00 5.7 3 Este 9 Nordeste 0 -- -- 82
2020-08-30 06:00:00 6.1 4 Nordeste 13 Nordeste 0 -- -- 81
2020-08-30 05:00:00 6.7 5 Nordeste 17 Nordeste 0 -- -- 78
2020-08-30 04:00:00 -- -- -- -- -- 0 -- -- --
2020-08-30 03:00:00 7.8 8 Nordeste 17 Nordeste 0 -- -- 75
2020-08-30 02:00:00 8.6 8 Nordeste 21 Norte 0 -- -- 73
2020-08-30 01:00:00 9.3 12 Norte 30 Norte 0 -- -- 73
2020-08-30 00:00:00 10.1 13 Norte 26 Norte 0 -- -- 69
2020-08-29 23:00:00 10.7 8 Norte 26 Nordeste 0 -- -- 63
2020-08-29 22:00:00 11.5 9 Norte 21 Noroeste 0 -- -- 58
2020-08-29 21:00:00 12.7 13 Noroeste 37 Noroeste 0 -- -- 53
2020-08-29 20:00:00 14.6 17 Norte 35 Noroeste 0 -- -- 46
2020-08-29 19:00:00 16.5 18 Noroeste 33 Noroeste 0 -- -- 42
2020-08-29 18:00:00 17.9 17 Noroeste 37 Noroeste 0 -- -- 36
2020-08-29 17:00:00 18.8 16 Noroeste 36 Noroeste 0 -- -- 35
2020-08-29 16:00:00 18.6 13 Oeste 28 Norte 0 -- -- 37
2020-08-29 15:00:00 18.1 16 Norte 34 Norte 0 -- -- 40
2020-08-29 14:00:00 17.2 14 Nordeste 31 Norte 0 -- -- 44
2020-08-29 13:00:00 15.9 11 Norte 33 Norte 0 -- -- 46
2020-08-29 12:00:00 14.8 13 Nordeste 32 Nordeste 0 -- -- 49
2020-08-29 11:00:00 13.5 12 Norte 27 Norte 0 -- -- 55
2020-08-29 10:00:00 11.5 14 Nordeste 28 Norte 0 -- -- 67
2020-08-29 09:00:00 9.2 7 Nordeste 13 Nordeste 0 -- -- 77
2020-08-29 08:00:00 9 4 Nordeste 14 Nordeste 0 -- -- 77
2020-08-29 07:00:00 9.6 9 Nordeste 17 Nordeste 0 -- -- 75
2020-08-29 06:00:00 10.6 4 Nordeste 16 Nordeste 0 -- -- 73
2020-08-29 05:00:00 11.6 6 Nordeste 19 Nordeste 0 -- -- 77
2020-08-29 04:00:00 -- -- -- -- -- 0 -- -- --
2020-08-29 03:00:00 13.1 8 Nordeste 21 Nordeste 0 -- -- 79
2020-08-29 02:00:00 13.7 9 Nordeste 22 Nordeste 0 -- -- 79
2020-08-29 01:00:00 14.1 9 Nordeste 25 Nordeste 0 -- -- 80
2020-08-29 00:00:00 15 8 Nordeste 19 Nordeste 0 -- -- 77
2020-08-28 23:00:00 16.2 7 Nordeste 18 Nordeste 0 -- -- 74
2020-08-28 22:00:00 18 6 Nordeste 21 Este 0 -- -- 68
2020-08-28 21:00:00 20.6 9 Nordeste 30 Este 0 -- -- 61
2020-08-28 20:00:00 24.7 10 Nordeste 33 Oeste 0 -- -- 49
2020-08-28 19:00:00 27.8 11 Oeste 37 Oeste 0 -- -- 30
2020-08-28 18:00:00 29 18 Oeste 39 Sudoeste 0 -- -- 26
2020-08-28 17:00:00 28.5 15 Sudoeste 39 Oeste 0 -- -- 30
2020-08-28 16:00:00 28.5 17 Oeste 41 Oeste 0 -- -- 31
2020-08-28 15:00:00 28.5 16 Oeste 34 Oeste 0 -- -- 32
2020-08-28 14:00:00 27 8 Noroeste 25 Sudoeste 0 -- -- 38
2020-08-28 13:00:00 26.1 7 Nordeste 17 Norte 0 -- -- 46
2020-08-28 12:00:00 24.5 4 Este 17 Nordeste 0 -- -- 50
2020-08-28 11:00:00 22.1 5 Nordeste 13 Este 0 -- -- 56
2020-08-28 10:00:00 20.2 5 Nordeste 10 Este 0 -- -- 59
2020-08-28 09:00:00 17.3 4 Nordeste 8 Nordeste 0 -- -- 67
2020-08-28 08:00:00 15.5 3 Sudoeste 10 Noroeste 0 -- -- 61
2020-08-28 07:00:00 16.5 4 Sudeste 9 Sudeste 0 -- -- 61
2020-08-28 06:00:00 16.9 3 Nordeste 6 Sudeste 0 -- -- 51
2020-08-28 05:00:00 18.8 3 Sudeste 7 Este 0 -- -- 54
2020-08-28 04:00:00 19.1 4 Este 7 Nordeste 0 -- -- 55
2020-08-28 03:00:00 19.9 3 Sudeste 13 Sur 0 -- -- 42
2020-08-28 02:00:00 20.4 4 Este 8 Nordeste 0 -- -- 40
2020-08-28 01:00:00 21.5 4 Sur 4 Sur 0 -- -- 37
2020-08-28 00:00:00 23.5 3 Sudeste 8 Sudeste 0 -- -- 34
2020-08-27 23:00:00 24.4 0 Calma 8 Norte 0 -- -- 32
2020-08-27 22:00:00 25.7 3 Sudoeste 6 Oeste 0 -- -- 29
2020-08-27 21:00:00 28.2 2 Sudoeste 13 Oeste 0 -- -- 25
2020-08-27 20:00:00 31 7 Sudoeste 22 Sudoeste 0 -- -- 21
2020-08-27 19:00:00 31.5 12 Sudoeste 28 Oeste 0 -- -- 21
2020-08-27 18:00:00 32 9 Oeste 30 Oeste 0 -- -- 22
2020-08-27 17:00:00 32.7 6 Oeste 30 Oeste 0 -- -- 23
2020-08-27 16:00:00 31.9 10 Oeste 30 Oeste 0 -- -- 24
2020-08-27 15:00:00 31.2 9 Noroeste 28 Noroeste 0 -- -- 27
2020-08-27 14:00:00 30.5 10 Norte 22 Noroeste 0 -- -- 27
2020-08-27 13:00:00 29.9 5 Nordeste 17 Noroeste 0 -- -- 33
2020-08-27 12:00:00 27.8 5 Norte 11 Noroeste 0 -- -- 32
2020-08-27 11:00:00 24.6 0 Calma -- -- 0 -- -- 45
2020-08-27 10:00:00 19.6 0 Calma 6 Nordeste 0 -- -- 54
2020-08-27 09:00:00 17 2 Nordeste 6 Nordeste 0 -- -- 58
2020-08-27 08:00:00 16.4 3 Sudeste 8 Norte 0 -- -- 63
2020-08-27 07:00:00 16.1 5 Norte 8 Norte 0 -- -- 54
2020-08-27 06:00:00 17.3 3 Norte 6 Nordeste 0 -- -- 54
2020-08-27 05:00:00 17.7 3 Nordeste 7 Nordeste 0 -- -- 55
2020-08-27 04:00:00 -- -- -- -- -- 0 -- -- --
2020-08-27 03:00:00 20.6 4 Este 11 Este 0 -- -- 53
2020-08-27 02:00:00 21.6 6 Este 12 Este 0 -- -- 51
2020-08-27 01:00:00 22.3 5 Este 13 Este 0 -- -- 46
2020-08-27 00:00:00 22.6 5 Este 14 Nordeste 0 -- -- 37
2020-08-26 23:00:00 24.6 5 Sudoeste 10 Sudoeste 0 -- -- 31
2020-08-26 22:00:00 25.8 4 Sudoeste 10 Sudoeste 0 -- -- 30
2020-08-26 21:00:00 28.7 5 Sudoeste 22 Oeste 0 -- -- 26
2020-08-26 20:00:00 31.2 8 Sudoeste 25 Oeste 0 -- -- 24
2020-08-26 19:00:00 31.9 13 Sudoeste 28 Sudoeste 0 -- -- 23
2020-08-26 18:00:00 33.1 9 Sudoeste 30 Sudoeste 0 -- -- 24
2020-08-26 17:00:00 33.1 13 Sudoeste 29 Sudoeste 0 -- -- 22
2020-08-26 16:00:00 32.4 13 Oeste 31 Noroeste 0 -- -- 24
2020-08-26 15:00:00 31.7 14 Oeste 32 Noroeste 0 -- -- 25
2020-08-26 14:00:00 30.7 14 Oeste 37 Oeste 0 -- -- 26
2020-08-26 13:00:00 30.2 15 Oeste 30 Oeste 0 -- -- 27
2020-08-26 12:00:00 29.3 9 Oeste 21 Oeste 0 -- -- 33
2020-08-26 11:00:00 26.5 6 Sudoeste 15 Sudoeste 0 -- -- 43
2020-08-26 10:00:00 22.6 3 Norte 17 Sur 0 -- -- 53
2020-08-26 09:00:00 20.6 7 Sur 17 Sur 0 -- -- 62
2020-08-26 08:00:00 17.5 5 Sur 15 Sudeste 0 -- -- 69
2020-08-26 07:00:00 17.2 2 Nordeste 9 Sur 0 -- -- 66
2020-08-26 06:00:00 18.4 2 Sudeste 19 Sur 0 -- -- 55
2020-08-26 05:00:00 19.3 9 Sur 21 Sur 0 -- -- 57
2020-08-26 04:00:00 -- -- -- -- -- 0 -- -- --
2020-08-26 03:00:00 18.9 11 Sur 22 Sur 0 -- -- 42
2020-08-26 02:00:00 19 7 Sudoeste 15 Sudeste 0 -- -- 43
2020-08-26 01:00:00 21.6 4 Sur 10 Sur 0 -- -- 37
2020-08-26 00:00:00 22.9 5 Sudoeste 12 Sudoeste 0 -- -- 35
2020-08-25 23:00:00 23.4 5 Sudoeste 18 Sur 0 -- -- 35
2020-08-25 22:00:00 25 13 Sur 18 Sudoeste 0 -- -- 32
2020-08-25 21:00:00 28.1 11 Sudoeste 18 Sudoeste 0 -- -- 28
2020-08-25 20:00:00 30.5 9 Sudoeste 26 Sudoeste 0 -- -- 26
2020-08-25 19:00:00 31.1 14 Sudoeste 31 Sudoeste 0 -- -- 26
2020-08-25 18:00:00 31.7 13 Oeste 27 Oeste 0 -- -- 29
2020-08-25 17:00:00 31.8 10 Oeste 28 Oeste 0 -- -- 27
2020-08-25 16:00:00 31.6 13 Oeste 30 Oeste 0 -- -- 26
2020-08-25 15:00:00 30.7 14 Oeste 28 Oeste 0 -- -- 30
2020-08-25 14:00:00 29.6 9 Oeste 32 Oeste 0 -- -- 30
2020-08-25 13:00:00 28.9 14 Oeste 29 Oeste 0 -- -- 33
2020-08-25 12:00:00 26.9 8 Oeste 18 Oeste 0 -- -- 43
2020-08-25 11:00:00 25.2 7 Oeste 18 Sudoeste 0 -- -- 54
2020-08-25 10:00:00 22.5 11 Sudoeste 21 Sudoeste 0 -- -- 65
2020-08-25 09:00:00 19.1 13 Sur 22 Sudoeste 0 -- -- 81
2020-08-25 08:00:00 17 15 Sur 22 Sur 0 -- -- 88
2020-08-25 07:00:00 17.1 15 Sur 24 Sur 0 -- -- 87
2020-08-25 06:00:00 17.4 15 Sur 22 Sur 0 -- -- 86
2020-08-25 05:00:00 17.5 13 Sur 22 Sur 0 -- -- 83
2020-08-25 04:00:00 -- -- -- -- -- 0 -- -- --
2020-08-25 03:00:00 18.2 15 Sur 21 Sur 0 -- -- 68
2020-08-25 02:00:00 18.8 14 Sur 23 Sur 0 -- -- 56
2020-08-25 01:00:00 19.7 4 Sur 8 Sur 0 -- -- 51
2020-08-25 00:00:00 21 4 Este 7 Este 0 -- -- 50
2020-08-24 23:00:00 22 3 Sudoeste 9 Sudoeste 0 -- -- 45
2020-08-24 22:00:00 23.6 5 Sudoeste 14 Sudoeste 0 -- -- 42
2020-08-24 21:00:00 26.2 8 Sudoeste 14 Sudoeste 0 -- -- 37
2020-08-24 20:00:00 28 9 Sudoeste 23 Oeste 0 -- -- 33
2020-08-24 19:00:00 28.7 10 Oeste 28 Oeste 0 -- -- 30
2020-08-24 18:00:00 29.8 12 Sudoeste 25 Sudoeste 0 -- -- 32
2020-08-24 17:00:00 29 14 Sudoeste 27 Oeste 0 -- -- 33
2020-08-24 16:00:00 27.6 9 Oeste 27 Oeste 0 -- -- 35
2020-08-24 15:00:00 28 8 Sudoeste 24 Oeste 0 -- -- 39
2020-08-24 14:00:00 26.8 7 Sudoeste 19 Sudoeste 0 -- -- 42
2020-08-24 13:00:00 25 7 Sudoeste 20 Sudoeste 0 -- -- 51
2020-08-24 12:00:00 23.7 4 Oeste 14 Este 0 -- -- 58
2020-08-24 11:00:00 21 7 Nordeste 12 Nordeste 0 -- -- 55
2020-08-24 10:00:00 17.9 5 Nordeste 12 Nordeste 0 -- -- 60
2020-08-24 09:00:00 15.6 5 Nordeste 9 Nordeste 0 -- -- 65
2020-08-24 08:00:00 15 2 Nordeste 8 Nordeste 0 -- -- 65
2020-08-24 07:00:00 14.9 3 Nordeste 8 Nordeste 0 -- -- 65
2020-08-24 06:00:00 14.6 5 Nordeste 12 Nordeste 0 -- -- 66
2020-08-24 05:00:00 14.5 4 Nordeste 10 Este 0 -- -- 64
2020-08-24 04:00:00 -- -- -- -- -- -- -- -- --
2020-08-24 03:00:00 15.6 4 Nordeste 10 Este 0 -- -- 59
2020-08-24 02:00:00 16.3 4 Nordeste 10 Este 0 -- -- 56
2020-08-24 01:00:00 17.3 5 Nordeste 14 Nordeste 0 -- -- 52
2020-08-24 00:00:00 18.2 5 Nordeste 12 Nordeste 0 -- -- 50
2020-08-23 23:00:00 19.8 8 Este 15 Este 0 -- -- 45
2020-08-23 22:00:00 21.3 8 Este 17 Este 0 -- -- 42
2020-08-23 21:00:00 23.9 6 Nordeste 20 Nordeste 0 -- -- 38
2020-08-23 20:00:00 27.3 7 Nordeste 17 Nordeste 0 -- -- 31
2020-08-23 19:00:00 28.9 6 Noroeste 18 Noroeste 0 -- -- 26
2020-08-23 18:00:00 29.5 5 Norte 16 Nordeste 0 -- -- 26
2020-08-23 17:00:00 28.9 6 Norte 22 Oeste 0 -- -- 25
2020-08-23 16:00:00 28.7 6 Oeste 24 Norte 0 -- -- 25
2020-08-23 15:00:00 27.7 7 Oeste 21 Noroeste 0 -- -- 26
2020-08-23 14:00:00 26.7 5 Oeste 19 Oeste 0 -- -- 32
2020-08-23 13:00:00 24.9 4 Nordeste 15 Nordeste 0 -- -- 39
2020-08-23 12:00:00 22.3 8 Nordeste 15 Norte 0 -- -- 52
2020-08-23 11:00:00 19.5 8 Nordeste 16 Nordeste 0 -- -- 64
2020-08-23 10:00:00 16.6 5 Nordeste 14 Este 0 -- -- 70
2020-08-23 09:00:00 13.4 4 Nordeste 13 Nordeste 0 -- -- 78
2020-08-23 08:00:00 12.3 7 Este 12 Nordeste 0 -- -- 79
2020-08-23 07:00:00 12.8 6 Este 9 Este 0 -- -- 77
2020-08-23 06:00:00 13.3 4 Nordeste 12 Este 0 -- -- 75
2020-08-23 05:00:00 14 5 Nordeste 13 Este 0 -- -- 74
2020-08-23 04:00:00 14.9 6 Nordeste 13 Nordeste 0 -- -- 71
2020-08-23 03:00:00 15.8 5 Nordeste 13 Nordeste 0 -- -- 68
2020-08-23 02:00:00 17.1 6 Nordeste 14 Este 0 -- -- 64
2020-08-23 01:00:00 18.4 6 Nordeste 21 Este 0 -- -- 59
2020-08-23 00:00:00 20.2 8 Este 14 Este 0 -- -- 52
2020-08-22 23:00:00 21.7 4 Nordeste 14 Noroeste 0 -- -- 37
2020-08-22 22:00:00 23.9 4 Sudoeste 8 Oeste 0 -- -- 27
2020-08-22 21:00:00 26 4 Oeste 18 Sudoeste 0 -- -- 26
2020-08-22 20:00:00 28.6 11 Oeste 24 Oeste 0 -- -- 23
2020-08-22 19:00:00 29.4 8 Oeste 31 Oeste 0 -- -- 25
2020-08-22 18:00:00 29.8 12 Oeste 28 Oeste 0 -- -- 27
2020-08-22 17:00:00 29.8 12 Oeste 31 Oeste 0 -- -- 27
2020-08-22 16:00:00 29.5 10 Oeste 31 Oeste 0 -- -- 26
2020-08-22 15:00:00 28.9 11 Oeste 29 Oeste 0 -- -- 31
2020-08-22 14:00:00 27.9 9 Oeste 28 Sudoeste 0 -- -- 35
2020-08-22 13:00:00 26.4 13 Oeste 25 Oeste 0 -- -- 33
2020-08-22 12:00:00 23.5 3 Oeste 13 Nordeste 0 -- -- 50
2020-08-22 11:00:00 20.8 8 Nordeste 18 Nordeste 0 -- -- 60
2020-08-22 10:00:00 18.3 7 Nordeste 12 Nordeste 0 -- -- 70
2020-08-22 09:00:00 15.7 3 Nordeste 8 Nordeste 0 -- -- 87
2020-08-22 08:00:00 14.8 2 Nordeste 6 Nordeste 0 -- -- 85
2020-08-22 07:00:00 15.3 3 Este 7 Nordeste 0 -- -- 83
2020-08-22 06:00:00 15.9 3 Nordeste 6 Nordeste 0 -- -- 81
2020-08-22 05:00:00 16.9 2 Nordeste 5 Este 0 -- -- 78
2020-08-22 04:00:00 -- -- -- -- -- 0 -- -- --
2020-08-22 03:00:00 18.3 5 Este 8 Este 0 -- -- 78
2020-08-22 02:00:00 19.1 2 Nordeste 7 Norte 0 -- -- 73
2020-08-22 01:00:00 20 3 Norte 8 Norte 0 -- -- 67
2020-08-22 00:00:00 21.6 3 Oeste 8 Oeste 0 -- -- 53
2020-08-21 23:00:00 23.1 4 Oeste 15 Sudoeste 0 -- -- 47
2020-08-21 22:00:00 24.2 6 Oeste 17 Sudoeste 0 -- -- 44
2020-08-21 21:00:00 26 10 Oeste 35 Sudoeste 0 -- -- 38
2020-08-21 20:00:00 28 17 Sudoeste 38 Sudoeste 0 -- -- 33
2020-08-21 19:00:00 28.9 19 Sudoeste 41 Sudoeste 0 -- -- 30
2020-08-21 18:00:00 29.5 22 Sudoeste 40 Sudoeste 0 -- -- 29
2020-08-21 17:00:00 29.4 17 Sudoeste 41 Sudoeste 0 -- -- 32
2020-08-21 16:00:00 29 18 Sudoeste 41 Oeste 0 -- -- 30
2020-08-21 15:00:00 28.3 22 Sudoeste 38 Sudoeste 0 -- -- 30
2020-08-21 14:00:00 27.4 19 Sudoeste 39 Oeste 0 -- -- 36
2020-08-21 13:00:00 26.5 17 Sudoeste 35 Oeste 0 -- -- 37
2020-08-21 12:00:00 25.3 14 Sudoeste 31 Oeste 0 -- -- 44
2020-08-21 11:00:00 23.7 11 Sudoeste 24 Sudoeste 0 -- -- 51
2020-08-21 10:00:00 21.3 13 Sudoeste 30 Sudoeste 0 -- -- 58
2020-08-21 09:00:00 18.6 13 Sudoeste 23 Sur 0 -- -- 60
2020-08-21 08:00:00 15.9 15 Sur 20 Sudoeste 0 -- -- 67
2020-08-21 07:00:00 16.7 15 Sur 22 Sur 0 -- -- 64
2020-08-21 06:00:00 17.3 13 Sur 21 Sudoeste 0 -- -- 61
2020-08-21 05:00:00 17.5 14 Sur 20 Sur 0 -- -- 60
2020-08-21 04:00:00 -- -- -- -- -- 0 -- -- --
2020-08-21 03:00:00 18.5 14 Sur 21 Sur 0 -- -- 53
2020-08-21 02:00:00 19.7 14 Sur 22 Sur 0 -- -- 49
2020-08-21 01:00:00 20.9 15 Sur 22 Sur 0 -- -- 44
2020-08-21 00:00:00 22.1 15 Sudoeste 24 Sur 0 -- -- 35
2020-08-20 23:00:00 24.4 10 Sur 26 Sudoeste 0 -- -- 27
2020-08-20 22:00:00 25.4 16 Sudoeste 26 Sudoeste 0 -- -- 25
2020-08-20 21:00:00 27.1 14 Sudoeste 35 Sudoeste 0 -- -- 25
2020-08-20 20:00:00 29.6 21 Sudoeste 45 Sudoeste 0 -- -- 23
2020-08-20 19:00:00 30.7 18 Sudoeste 37 Sudoeste 0 -- -- 23
2020-08-20 18:00:00 30.8 21 Sudoeste 39 Sudoeste 0 -- -- 23
2020-08-20 17:00:00 31.2 20 Sudoeste 41 Oeste 0 -- -- 22
2020-08-20 16:00:00 30.5 19 Sudoeste 42 Sudoeste 0 -- -- 20
2020-08-20 15:00:00 29.5 18 Sudoeste 36 Sudoeste 0 -- -- 24
2020-08-20 14:00:00 28.3 18 Sudoeste 38 Sudoeste 0 -- -- 26
2020-08-20 13:00:00 27.4 20 Sudoeste 40 Oeste 0 -- -- 28
2020-08-20 12:00:00 26.3 16 Sudoeste 30 Sudoeste 0 -- -- 27
2020-08-20 11:00:00 24.3 13 Sudoeste 24 Sur 0 -- -- 37
2020-08-20 10:00:00 22.3 16 Sur 26 Sur 0 -- -- 43
2020-08-20 09:00:00 18.9 11 Sur 18 Sur 0 -- -- 59
2020-08-20 08:00:00 16.5 13 Sur 18 Sur 0 -- -- 66
2020-08-20 07:00:00 17 12 Sur 18 Sur 0 -- -- 66
2020-08-20 06:00:00 17.2 12 Sur 21 Sur 0 -- -- 67
2020-08-20 05:00:00 17.7 11 Sur 18 Sur 0 -- -- 65
2020-08-20 04:00:00 -- -- -- -- -- 0 -- -- --
2020-08-20 03:00:00 18.2 8 Sur 17 Sur 0 -- -- 52
2020-08-20 02:00:00 18.6 6 Sur 16 Sur 0 -- -- 51
2020-08-20 01:00:00 19.8 8 Sur 11 Sur 0 -- -- 50
2020-08-20 00:00:00 21.2 4 Sur 8 Oeste 0 -- -- 47